»·PEaware :: HAWG11 KLSV-KLSV

HAWG11 :: KLSV-KLSV

FLIGHT INFORMATION

Flight Status: Arrived
Operator: Unknown
More flights by this operator :: More flights under this callsign
Pilot: Logan D. (20254)
Aircraft: FAIRCHILD A-10 THUNDERBOLT 2
(A10)
More flights by this aircraft type
Origin: KLSV Nellis AFB
United States
Destination: KLSV Nellis AFB
United States
More flights between these airports :: More routes between these airports
Route: FYTTR5 FYTTR INS
File this flight plan on PilotEdge
Remarks: +CW / MANEUVERS IN R4806W,
Altitude:
(Current/Filed)
15,000ft
Speed:
(Current/Filed)
250kts
Departed: 14-Mar-20 07:20 AM
Arrived: 14-Mar-20 08:45 AM
Distance/Time
Traveled:
0nm/1:25
Distance/Time
To Go:
Arrived

Flight Plot

Page will automatically refresh every two minutes.

Flight plan parsing failed; only flown route is shown


Map Options




Map Legend


Flown Route
Filed Route
Departure Airport
Arrival Airport
Navaid (VOR, NDB)
Fix

Horizontal Profiles

Position Reports

Time Latitude Longitude Heading Altitude Ground
Speed
14-Mar-20 06:50 36.229636 -115.024495 87 1850ft 0kts
14-Mar-20 06:52 36.229636 -115.024495 87 1850ft 0kts
14-Mar-20 06:52 36.229636 -115.024495 87 1850ft 0kts
14-Mar-20 06:53 36.229636 -115.024495 87 1850ft 0kts
14-Mar-20 06:54 36.229636 -115.024495 87 1850ft 0kts
14-Mar-20 06:55 36.229636 -115.024495 87 1850ft 0kts
14-Mar-20 06:56 36.229636 -115.024495 87 1850ft 0kts
14-Mar-20 06:57 36.229635 -115.024495 87 1850ft 0kts
14-Mar-20 06:58 36.229635 -115.024495 87 1850ft 0kts
14-Mar-20 06:59 36.229635 -115.024495 87 1850ft 0kts
14-Mar-20 07:00 36.229635 -115.024495 87 1850ft 0kts
14-Mar-20 07:01 36.229635 -115.024495 87 1850ft 0kts
14-Mar-20 07:02 36.229635 -115.024495 87 1850ft 0kts
14-Mar-20 07:03 36.229635 -115.024495 87 1850ft 0kts
14-Mar-20 07:04 36.229635 -115.024495 87 1850ft 0kts
14-Mar-20 07:05 36.229635 -115.024495 87 1850ft 0kts
14-Mar-20 07:06 36.229635 -115.024495 87 1850ft 0kts
14-Mar-20 07:07 36.229635 -115.024495 87 1850ft 0kts
14-Mar-20 07:08 36.229635 -115.024495 87 1850ft 0kts
14-Mar-20 07:09 36.229635 -115.024495 87 1850ft 0kts
14-Mar-20 07:10 36.229635 -115.024495 87 1850ft 0kts
14-Mar-20 07:11 36.229635 -115.024495 87 1850ft 0kts
14-Mar-20 07:12 36.229661 -115.024288 54 1850ft 5kts
14-Mar-20 07:13 36.230641 -115.027268 265 1850ft 9kts
14-Mar-20 07:14 36.230409 -115.031979 221 1850ft 16kts
14-Mar-20 07:15 36.226752 -115.035969 219 1850ft 18kts
14-Mar-20 07:16 36.222762 -115.040309 230 1849ft 19kts
14-Mar-20 07:17 36.224248 -115.043134 316 1848ft 5kts
14-Mar-20 07:18 36.225425 -115.043601 39 1849ft 0kts
14-Mar-20 07:19 36.251680 -115.015352 38 2515ft 186kts
14-Mar-20 07:20 36.294196 -114.970649 38 5050ft 203kts
14-Mar-20 07:21 36.346219 -114.950487 332 7647ft 212kts
14-Mar-20 07:22 36.364986 -115.017118 254 9949ft 228kts
14-Mar-20 07:23 36.325928 -115.085583 222 11508ft 258kts
14-Mar-20 07:24 36.275139 -115.149714 253 13125ft 264kts
14-Mar-20 07:25 36.285986 -115.240379 276 14302ft 267kts
14-Mar-20 07:26 36.297462 -115.332986 282 15310ft 281kts
14-Mar-20 07:27 36.312342 -115.433660 282 15265ft 305kts
14-Mar-20 07:28 36.329630 -115.538673 282 15245ft 312kts
14-Mar-20 07:29 36.347203 -115.645086 282 15244ft 314kts
14-Mar-20 07:30 36.401849 -115.698702 5 15148ft 297kts
14-Mar-20 07:31 36.485572 -115.688445 5 15135ft 302kts
14-Mar-20 07:32 36.569608 -115.678028 5 15135ft 303kts
14-Mar-20 07:33 36.654012 -115.667555 5 15139ft 302kts
14-Mar-20 07:34 36.687470 -115.586272 83 14525ft 312kts
14-Mar-20 07:35 36.748678 -115.540227 331 14521ft 305kts
14-Mar-20 07:36 36.756668 -115.631835 217 14522ft 318kts
14-Mar-20 07:37 36.685130 -115.607457 102 14489ft 307kts
14-Mar-20 07:38 36.731321 -115.541805 347 14522ft 301kts
14-Mar-20 07:39 36.808334 -115.587206 334 14510ft 307kts
14-Mar-20 07:40 36.883394 -115.586744 56 14825ft 296kts
14-Mar-20 07:41 36.849809 -115.516642 198 14634ft 322kts
14-Mar-20 07:42 36.778668 -115.584794 224 14672ft 320kts
14-Mar-20 07:43 36.699500 -115.618121 152 14593ft 319kts
14-Mar-20 07:44 36.692848 -115.540389 4 14701ft 296kts
14-Mar-20 07:45 36.771535 -115.576258 336 14610ft 309kts
14-Mar-20 07:46 36.852512 -115.612771 10 14395ft 312kts
14-Mar-20 07:47 36.828718 -115.550203 185 14117ft 319kts
14-Mar-20 07:48 36.754434 -115.607370 222 14314ft 323kts
14-Mar-20 07:49 36.673829 -115.606244 128 14427ft 316kts
14-Mar-20 07:50 36.678470 -115.510629 35 14427ft 306kts
14-Mar-20 07:51 36.756171 -115.523289 323 14310ft 317kts
14-Mar-20 07:52 36.822250 -115.520611 92 12502ft 322kts
14-Mar-20 07:53 36.751544 -115.483493 220 11877ft 336kts
14-Mar-20 07:54 36.791213 -115.566549 14 8547ft 346kts
14-Mar-20 07:55 36.772528 -115.520989 258 7789ft 334kts
14-Mar-20 07:56 36.802167 -115.602945 323 5882ft 311kts
14-Mar-20 07:57 36.783368 -115.677522 168 7763ft 295kts
14-Mar-20 07:58 36.736149 -115.602883 150 8124ft 319kts
14-Mar-20 07:59 36.736804 -115.654041 350 9563ft 293kts
14-Mar-20 08:00 36.825405 -115.650990 318 8429ft 297kts
14-Mar-20 08:01 36.805354 -115.719483 174 10925ft 294kts
14-Mar-20 08:02 36.743353 -115.651476 122 11255ft 323kts
14-Mar-20 08:03 36.766421 -115.586626 340 10015ft 340kts
14-Mar-20 08:04 36.850331 -115.618775 346 5032ft 353kts
14-Mar-20 08:05 36.880485 -115.560674 101 7145ft 299kts
14-Mar-20 08:06 36.923032 -115.501526 9 7766ft 304kts
14-Mar-20 08:07 36.917602 -115.452012 174 5904ft 365kts
14-Mar-20 08:08 36.879285 -115.510789 319 7581ft 274kts
14-Mar-20 08:09 36.952836 -115.491617 78 7870ft 310kts
14-Mar-20 08:10 36.874385 -115.449892 180 4604ft 356kts
14-Mar-20 08:11 36.851929 -115.467699 22 6174ft 271kts
14-Mar-20 08:12 36.930692 -115.475500 14 6662ft 271kts
14-Mar-20 08:13 36.902564 -115.493717 259 6929ft 260kts
14-Mar-20 08:14 36.853023 -115.560189 200 7653ft 273kts
14-Mar-20 08:15 36.782695 -115.595442 200 7659ft 293kts
14-Mar-20 08:16 36.702562 -115.635245 200 7654ft 316kts
14-Mar-20 08:17 36.620355 -115.675981 200 7654ft 318kts
14-Mar-20 08:18 36.642074 -115.709743 4 7762ft 229kts
14-Mar-20 08:19 36.634085 -115.676969 208 7528ft 247kts
14-Mar-20 08:20 36.651779 -115.729331 19 7599ft 230kts
14-Mar-20 08:21 36.642144 -115.672015 167 7614ft 245kts
14-Mar-20 08:22 36.577864 -115.667863 184 8039ft 229kts
14-Mar-20 08:23 36.529206 -115.615010 114 8256ft 285kts
14-Mar-20 08:24 36.486619 -115.526840 119 8382ft 296kts
14-Mar-20 08:25 36.442407 -115.438754 119 9728ft 307kts
14-Mar-20 08:26 36.395202 -115.346625 119 10144ft 280kts
14-Mar-20 08:27 36.357214 -115.273012 119 10150ft 246kts
14-Mar-20 08:28 36.321183 -115.203332 118 10152ft 238kts
14-Mar-20 08:29 36.302181 -115.126889 77 8391ft 238kts
14-Mar-20 08:30 36.335457 -115.064513 42 8359ft 228kts
14-Mar-20 08:31 36.382031 -115.007047 42 8362ft 239kts
14-Mar-20 08:32 36.430359 -114.948200 42 8217ft 236kts
14-Mar-20 08:33 36.477024 -114.891070 42 8219ft 238kts
14-Mar-20 08:34 36.525198 -114.832378 42 8218ft 245kts
14-Mar-20 08:35 36.511382 -114.790478 221 7774ft 280kts
14-Mar-20 08:36 36.447693 -114.857687 215 8067ft 313kts
14-Mar-20 08:37 36.377278 -114.918461 214 7975ft 273kts
14-Mar-20 08:38 36.323861 -114.973385 219 6355ft 250kts
14-Mar-20 08:39 36.278227 -115.024279 221 5302ft 191kts
14-Mar-20 08:40 36.236716 -115.070530 222 3820ft 200kts
14-Mar-20 08:41 36.199340 -115.086165 88 3211ft 162kts
14-Mar-20 08:42 36.227119 -115.046349 42 1858ft 121kts
14-Mar-20 08:44 36.244268 -115.027752 40 1861ft 53kts
14-Mar-20 08:45 36.245549 -115.030263 270 1864ft 25kts
14-Mar-20 08:46 36.241831 -115.032765 220 1863ft 15kts
14-Mar-20 08:47 36.237769 -115.037176 220 1861ft 20kts
14-Mar-20 08:48 36.236082 -115.040612 318 1859ft 8kts
14-Mar-20 08:49 36.236217 -115.040813 128 1859ft 3kts
14-Mar-20 08:50 36.236179 -115.040761 133 1859ft 0kts
14-Mar-20 08:51 36.236179 -115.040761 133 1859ft 0kts
14-Mar-20 08:52 36.236179 -115.040761 133 1859ft 0kts
14-Mar-20 08:53 36.236179 -115.040761 133 1859ft 0kts

Navigation Log

Ident Type
Flight plan parsing failed, navigation log unavailable